sensor_id;sensor_type;location;lat;lon;timestamp;P1;durP1;ratioP1;P2;durP2;ratioP2
2257;SDS011;1136;51.574;7.706;2023-09-30T00:01:28;9.47;;;4.40;;
2257;SDS011;1136;51.574;7.706;2023-09-30T00:04:33;7.97;;;4.43;;
2257;SDS011;1136;51.574;7.706;2023-09-30T00:07:37;5.10;;;3.77;;
2257;SDS011;1136;51.574;7.706;2023-09-30T00:10:41;9.13;;;4.57;;
2257;SDS011;1136;51.574;7.706;2023-09-30T00:13:45;7.73;;;4.30;;
2257;SDS011;1136;51.574;7.706;2023-09-30T00:16:50;5.20;;;4.20;;
2257;SDS011;1136;51.574;7.706;2023-09-30T00:19:55;8.90;;;4.80;;
2257;SDS011;1136;51.574;7.706;2023-09-30T00:22:59;12.20;;;4.60;;
2257;SDS011;1136;51.574;7.706;2023-09-30T00:26:03;8.00;;;4.80;;
2257;SDS011;1136;51.574;7.706;2023-09-30T00:29:07;6.50;;;4.83;;
2257;SDS011;1136;51.574;7.706;2023-09-30T00:32:10;12.73;;;6.00;;
2257;SDS011;1136;51.574;7.706;2023-09-30T00:35:14;6.30;;;5.00;;
2257;SDS011;1136;51.574;7.706;2023-09-30T00:38:19;14.73;;;5.70;;
2257;SDS011;1136;51.574;7.706;2023-09-30T00:41:23;11.90;;;6.27;;
2257;SDS011;1136;51.574;7.706;2023-09-30T00:44:27;10.37;;;5.77;;
2257;SDS011;1136;51.574;7.706;2023-09-30T00:47:32;8.53;;;4.97;;
2257;SDS011;1136;51.574;7.706;2023-09-30T00:50:38;9.73;;;4.63;;
2257;SDS011;1136;51.574;7.706;2023-09-30T00:53:42;10.37;;;5.40;;
2257;SDS011;1136;51.574;7.706;2023-09-30T00:56:46;8.50;;;4.73;;
2257;SDS011;1136;51.574;7.706;2023-09-30T00:59:52;12.07;;;5.40;;
2257;SDS011;1136;51.574;7.706;2023-09-30T01:02:56;10.73;;;5.53;;
2257;SDS011;1136;51.574;7.706;2023-09-30T01:06:03;9.80;;;6.03;;
2257;SDS011;1136;51.574;7.706;2023-09-30T01:09:07;12.80;;;6.10;;
2257;SDS011;1136;51.574;7.706;2023-09-30T01:12:12;9.60;;;5.83;;
2257;SDS011;1136;51.574;7.706;2023-09-30T01:15:17;18.47;;;6.77;;
2257;SDS011;1136;51.574;7.706;2023-09-30T01:18:21;10.23;;;5.33;;
2257;SDS011;1136;51.574;7.706;2023-09-30T01:21:25;8.57;;;5.70;;
2257;SDS011;1136;51.574;7.706;2023-09-30T01:24:38;15.10;;;5.77;;
2257;SDS011;1136;51.574;7.706;2023-09-30T01:27:43;11.90;;;6.40;;
2257;SDS011;1136;51.574;7.706;2023-09-30T01:30:47;8.33;;;5.77;;
2257;SDS011;1136;51.574;7.706;2023-09-30T01:33:51;14.47;;;6.67;;
2257;SDS011;1136;51.574;7.706;2023-09-30T01:36:58;10.20;;;5.40;;
2257;SDS011;1136;51.574;7.706;2023-09-30T01:40:03;12.17;;;6.60;;
2257;SDS011;1136;51.574;7.706;2023-09-30T01:43:12;13.00;;;6.03;;
2257;SDS011;1136;51.574;7.706;2023-09-30T01:46:19;10.10;;;5.87;;
2257;SDS011;1136;51.574;7.706;2023-09-30T01:49:23;14.03;;;5.73;;
2257;SDS011;1136;51.574;7.706;2023-09-30T01:52:28;14.50;;;5.77;;
2257;SDS011;1136;51.574;7.706;2023-09-30T01:55:35;23.53;;;6.40;;
2257;SDS011;1136;51.574;7.706;2023-09-30T01:58:40;11.50;;;5.80;;
2257;SDS011;1136;51.574;7.706;2023-09-30T02:01:44;10.77;;;6.03;;
2257;SDS011;1136;51.574;7.706;2023-09-30T02:04:49;11.30;;;6.30;;
2257;SDS011;1136;51.574;7.706;2023-09-30T02:07:53;12.40;;;5.60;;
2257;SDS011;1136;51.574;7.706;2023-09-30T02:10:58;10.80;;;5.00;;
2257;SDS011;1136;51.574;7.706;2023-09-30T02:14:03;17.80;;;6.67;;
2257;SDS011;1136;51.574;7.706;2023-09-30T02:17:08;13.83;;;6.83;;
2257;SDS011;1136;51.574;7.706;2023-09-30T02:20:13;9.80;;;5.93;;
2257;SDS011;1136;51.574;7.706;2023-09-30T02:23:20;8.07;;;5.20;;
2257;SDS011;1136;51.574;7.706;2023-09-30T02:26:24;13.97;;;5.47;;
2257;SDS011;1136;51.574;7.706;2023-09-30T02:29:31;9.80;;;5.63;;
2257;SDS011;1136;51.574;7.706;2023-09-30T02:32:36;15.33;;;6.63;;
2257;SDS011;1136;51.574;7.706;2023-09-30T02:35:45;13.13;;;5.83;;
2257;SDS011;1136;51.574;7.706;2023-09-30T02:38:49;10.90;;;5.57;;
2257;SDS011;1136;51.574;7.706;2023-09-30T02:41:53;9.30;;;5.23;;
2257;SDS011;1136;51.574;7.706;2023-09-30T02:45:01;10.67;;;6.00;;
2257;SDS011;1136;51.574;7.706;2023-09-30T02:48:05;12.30;;;5.70;;
2257;SDS011;1136;51.574;7.706;2023-09-30T02:51:11;7.80;;;4.40;;
2257;SDS011;1136;51.574;7.706;2023-09-30T02:54:15;15.37;;;4.80;;
2257;SDS011;1136;51.574;7.706;2023-09-30T02:57:20;10.77;;;6.17;;
2257;SDS011;1136;51.574;7.706;2023-09-30T03:00:24;11.00;;;5.60;;
2257;SDS011;1136;51.574;7.706;2023-09-30T03:03:30;15.13;;;5.87;;
2257;SDS011;1136;51.574;7.706;2023-09-30T03:06:34;12.27;;;5.67;;
2257;SDS011;1136;51.574;7.706;2023-09-30T03:09:40;11.40;;;6.30;;
2257;SDS011;1136;51.574;7.706;2023-09-30T03:12:44;13.67;;;6.40;;
2257;SDS011;1136;51.574;7.706;2023-09-30T03:15:49;15.73;;;7.87;;
2257;SDS011;1136;51.574;7.706;2023-09-30T03:18:53;15.63;;;6.50;;
2257;SDS011;1136;51.574;7.706;2023-09-30T03:21:59;10.83;;;6.87;;
2257;SDS011;1136;51.574;7.706;2023-09-30T03:25:11;16.53;;;7.70;;
2257;SDS011;1136;51.574;7.706;2023-09-30T03:28:16;17.80;;;7.43;;
2257;SDS011;1136;51.574;7.706;2023-09-30T03:31:20;13.70;;;6.90;;
2257;SDS011;1136;51.574;7.706;2023-09-30T03:34:26;11.87;;;7.30;;
2257;SDS011;1136;51.574;7.706;2023-09-30T03:37:29;15.97;;;6.63;;
2257;SDS011;1136;51.574;7.706;2023-09-30T03:40:35;14.03;;;8.30;;
2257;SDS011;1136;51.574;7.706;2023-09-30T03:43:42;16.43;;;7.63;;
2257;SDS011;1136;51.574;7.706;2023-09-30T03:46:46;11.80;;;7.93;;
2257;SDS011;1136;51.574;7.706;2023-09-30T03:49:50;14.20;;;7.40;;
2257;SDS011;1136;51.574;7.706;2023-09-30T03:53:00;17.00;;;6.80;;
2257;SDS011;1136;51.574;7.706;2023-09-30T03:56:05;15.60;;;6.00;;
2257;SDS011;1136;51.574;7.706;2023-09-30T03:59:10;12.73;;;6.80;;
2257;SDS011;1136;51.574;7.706;2023-09-30T04:02:14;16.80;;;7.00;;
2257;SDS011;1136;51.574;7.706;2023-09-30T04:05:18;12.47;;;5.63;;
2257;SDS011;1136;51.574;7.706;2023-09-30T04:08:23;12.57;;;6.80;;
2257;SDS011;1136;51.574;7.706;2023-09-30T04:11:27;11.03;;;6.37;;
2257;SDS011;1136;51.574;7.706;2023-09-30T04:14:31;16.20;;;7.57;;
2257;SDS011;1136;51.574;7.706;2023-09-30T04:17:36;11.67;;;6.27;;
2257;SDS011;1136;51.574;7.706;2023-09-30T04:20:42;12.50;;;7.00;;
2257;SDS011;1136;51.574;7.706;2023-09-30T04:23:46;12.87;;;6.10;;
2257;SDS011;1136;51.574;7.706;2023-09-30T04:26:51;10.43;;;5.57;;
2257;SDS011;1136;51.574;7.706;2023-09-30T04:29:58;11.80;;;5.43;;
2257;SDS011;1136;51.574;7.706;2023-09-30T04:33:02;17.10;;;6.77;;
2257;SDS011;1136;51.574;7.706;2023-09-30T04:36:08;11.63;;;6.23;;
2257;SDS011;1136;51.574;7.706;2023-09-30T04:39:12;16.47;;;6.80;;
2257;SDS011;1136;51.574;7.706;2023-09-30T04:42:18;12.17;;;6.20;;
2257;SDS011;1136;51.574;7.706;2023-09-30T04:45:22;11.67;;;6.90;;
2257;SDS011;1136;51.574;7.706;2023-09-30T04:48:28;8.97;;;5.57;;
2257;SDS011;1136;51.574;7.706;2023-09-30T04:51:33;9.37;;;6.20;;
2257;SDS011;1136;51.574;7.706;2023-09-30T04:54:37;13.43;;;7.17;;
2257;SDS011;1136;51.574;7.706;2023-09-30T04:57:42;8.33;;;5.90;;
2257;SDS011;1136;51.574;7.706;2023-09-30T05:00:48;14.20;;;6.60;;
2257;SDS011;1136;51.574;7.706;2023-09-30T05:03:52;7.53;;;6.00;;
2257;SDS011;1136;51.574;7.706;2023-09-30T05:06:57;11.40;;;6.43;;
2257;SDS011;1136;51.574;7.706;2023-09-30T05:10:01;9.67;;;6.37;;
2257;SDS011;1136;51.574;7.706;2023-09-30T05:13:09;13.83;;;6.27;;
2257;SDS011;1136;51.574;7.706;2023-09-30T05:16:14;13.07;;;6.97;;
2257;SDS011;1136;51.574;7.706;2023-09-30T05:19:18;12.27;;;6.43;;
2257;SDS011;1136;51.574;7.706;2023-09-30T05:22:23;10.63;;;7.30;;
2257;SDS011;1136;51.574;7.706;2023-09-30T05:25:28;12.30;;;6.50;;
2257;SDS011;1136;51.574;7.706;2023-09-30T05:28:33;13.87;;;6.23;;
2257;SDS011;1136;51.574;7.706;2023-09-30T05:31:38;11.80;;;5.50;;
2257;SDS011;1136;51.574;7.706;2023-09-30T05:34:43;14.33;;;6.80;;
2257;SDS011;1136;51.574;7.706;2023-09-30T05:37:47;14.53;;;6.53;;
2257;SDS011;1136;51.574;7.706;2023-09-30T05:40:51;10.27;;;5.43;;
2257;SDS011;1136;51.574;7.706;2023-09-30T05:43:55;10.23;;;5.83;;
2257;SDS011;1136;51.574;7.706;2023-09-30T05:47:00;7.53;;;4.47;;
2257;SDS011;1136;51.574;7.706;2023-09-30T05:50:06;16.10;;;6.00;;
2257;SDS011;1136;51.574;7.706;2023-09-30T05:53:10;10.50;;;5.40;;
2257;SDS011;1136;51.574;7.706;2023-09-30T05:56:15;7.70;;;4.50;;
2257;SDS011;1136;51.574;7.706;2023-09-30T05:59:19;9.67;;;5.27;;
2257;SDS011;1136;51.574;7.706;2023-09-30T06:02:24;11.73;;;6.60;;
2257;SDS011;1136;51.574;7.706;2023-09-30T06:05:29;16.67;;;8.77;;
2257;SDS011;1136;51.574;7.706;2023-09-30T06:08:35;20.90;;;6.20;;
2257;SDS011;1136;51.574;7.706;2023-09-30T06:11:41;12.23;;;6.03;;
2257;SDS011;1136;51.574;7.706;2023-09-30T06:14:45;17.50;;;6.70;;
2257;SDS011;1136;51.574;7.706;2023-09-30T06:17:49;14.70;;;7.13;;
2257;SDS011;1136;51.574;7.706;2023-09-30T06:20:56;12.23;;;6.47;;
2257;SDS011;1136;51.574;7.706;2023-09-30T06:24:01;19.17;;;6.50;;
2257;SDS011;1136;51.574;7.706;2023-09-30T06:27:06;11.03;;;6.20;;
2257;SDS011;1136;51.574;7.706;2023-09-30T06:30:10;14.07;;;6.20;;
2257;SDS011;1136;51.574;7.706;2023-09-30T06:33:15;10.50;;;6.00;;
2257;SDS011;1136;51.574;7.706;2023-09-30T06:36:19;14.63;;;6.83;;
2257;SDS011;1136;51.574;7.706;2023-09-30T06:39:24;13.00;;;5.60;;
2257;SDS011;1136;51.574;7.706;2023-09-30T06:42:29;9.67;;;5.53;;
2257;SDS011;1136;51.574;7.706;2023-09-30T06:45:33;11.83;;;6.10;;
2257;SDS011;1136;51.574;7.706;2023-09-30T06:48:37;16.50;;;5.93;;
2257;SDS011;1136;51.574;7.706;2023-09-30T06:51:44;11.50;;;5.97;;
2257;SDS011;1136;51.574;7.706;2023-09-30T06:54:48;13.10;;;5.20;;
2257;SDS011;1136;51.574;7.706;2023-09-30T06:57:52;19.00;;;7.20;;
2257;SDS011;1136;51.574;7.706;2023-09-30T07:00:56;11.30;;;5.07;;
2257;SDS011;1136;51.574;7.706;2023-09-30T07:04:00;7.77;;;4.23;;
2257;SDS011;1136;51.574;7.706;2023-09-30T07:07:05;15.97;;;9.53;;
2257;SDS011;1136;51.574;7.706;2023-09-30T07:10:09;8.53;;;4.60;;
2257;SDS011;1136;51.574;7.706;2023-09-30T07:13:15;14.77;;;5.90;;
2257;SDS011;1136;51.574;7.706;2023-09-30T07:16:20;15.43;;;4.80;;
2257;SDS011;1136;51.574;7.706;2023-09-30T07:19:25;14.10;;;5.67;;
2257;SDS011;1136;51.574;7.706;2023-09-30T07:22:29;11.60;;;5.17;;
2257;SDS011;1136;51.574;7.706;2023-09-30T07:25:36;7.47;;;4.20;;
2257;SDS011;1136;51.574;7.706;2023-09-30T07:28:40;10.80;;;4.23;;
2257;SDS011;1136;51.574;7.706;2023-09-30T07:31:44;14.80;;;4.67;;
2257;SDS011;1136;51.574;7.706;2023-09-30T07:34:49;8.93;;;4.43;;
2257;SDS011;1136;51.574;7.706;2023-09-30T07:37:53;10.10;;;4.50;;
2257;SDS011;1136;51.574;7.706;2023-09-30T07:40:57;21.30;;;5.57;;
2257;SDS011;1136;51.574;7.706;2023-09-30T07:44:01;9.77;;;4.30;;
2257;SDS011;1136;51.574;7.706;2023-09-30T07:47:06;9.03;;;4.37;;
2257;SDS011;1136;51.574;7.706;2023-09-30T07:50:10;11.10;;;4.40;;
2257;SDS011;1136;51.574;7.706;2023-09-30T07:53:16;14.53;;;4.70;;
2257;SDS011;1136;51.574;7.706;2023-09-30T07:56:19;7.20;;;4.10;;
2257;SDS011;1136;51.574;7.706;2023-09-30T07:59:24;10.60;;;5.20;;
2257;SDS011;1136;51.574;7.706;2023-09-30T08:02:29;13.47;;;5.13;;
2257;SDS011;1136;51.574;7.706;2023-09-30T08:05:37;9.43;;;5.97;;
2257;SDS011;1136;51.574;7.706;2023-09-30T08:08:42;10.27;;;5.10;;
2257;SDS011;1136;51.574;7.706;2023-09-30T08:11:46;10.23;;;5.30;;
2257;SDS011;1136;51.574;7.706;2023-09-30T08:14:50;15.30;;;5.03;;
2257;SDS011;1136;51.574;7.706;2023-09-30T08:17:55;10.33;;;5.50;;
2257;SDS011;1136;51.574;7.706;2023-09-30T08:20:59;10.27;;;5.63;;
2257;SDS011;1136;51.574;7.706;2023-09-30T08:24:03;13.20;;;5.80;;
2257;SDS011;1136;51.574;7.706;2023-09-30T08:27:07;9.63;;;5.33;;
2257;SDS011;1136;51.574;7.706;2023-09-30T08:30:11;8.20;;;4.50;;
2257;SDS011;1136;51.574;7.706;2023-09-30T08:33:15;8.90;;;4.80;;
2257;SDS011;1136;51.574;7.706;2023-09-30T08:36:20;12.30;;;5.03;;
2257;SDS011;1136;51.574;7.706;2023-09-30T08:39:24;13.43;;;5.47;;
2257;SDS011;1136;51.574;7.706;2023-09-30T08:42:29;7.90;;;4.80;;
2257;SDS011;1136;51.574;7.706;2023-09-30T08:45:37;11.30;;;4.90;;
2257;SDS011;1136;51.574;7.706;2023-09-30T08:48:44;10.40;;;5.13;;
2257;SDS011;1136;51.574;7.706;2023-09-30T08:51:48;8.87;;;4.93;;
2257;SDS011;1136;51.574;7.706;2023-09-30T08:54:53;10.50;;;4.57;;
2257;SDS011;1136;51.574;7.706;2023-09-30T08:57:57;10.40;;;4.37;;
2257;SDS011;1136;51.574;7.706;2023-09-30T09:01:04;9.90;;;4.40;;
2257;SDS011;1136;51.574;7.706;2023-09-30T09:04:11;10.63;;;4.57;;
2257;SDS011;1136;51.574;7.706;2023-09-30T09:07:16;8.20;;;4.80;;
2257;SDS011;1136;51.574;7.706;2023-09-30T09:10:20;10.03;;;3.90;;
2257;SDS011;1136;51.574;7.706;2023-09-30T09:13:25;9.70;;;4.47;;
2257;SDS011;1136;51.574;7.706;2023-09-30T09:16:30;6.47;;;3.90;;
2257;SDS011;1136;51.574;7.706;2023-09-30T09:19:34;11.53;;;4.83;;
2257;SDS011;1136;51.574;7.706;2023-09-30T09:22:39;9.53;;;4.30;;
2257;SDS011;1136;51.574;7.706;2023-09-30T09:25:44;4.17;;;3.20;;
2257;SDS011;1136;51.574;7.706;2023-09-30T09:28:47;7.40;;;3.83;;
2257;SDS011;1136;51.574;7.706;2023-09-30T09:31:52;15.07;;;4.00;;
2257;SDS011;1136;51.574;7.706;2023-09-30T09:35:00;11.80;;;4.03;;
2257;SDS011;1136;51.574;7.706;2023-09-30T09:38:05;4.90;;;3.27;;
2257;SDS011;1136;51.574;7.706;2023-09-30T09:41:10;7.10;;;3.30;;
2257;SDS011;1136;51.574;7.706;2023-09-30T09:44:14;6.57;;;4.03;;
2257;SDS011;1136;51.574;7.706;2023-09-30T09:47:19;3.90;;;3.47;;
2257;SDS011;1136;51.574;7.706;2023-09-30T09:50:25;6.93;;;4.17;;
2257;SDS011;1136;51.574;7.706;2023-09-30T09:53:29;4.67;;;3.30;;
2257;SDS011;1136;51.574;7.706;2023-09-30T09:56:34;6.43;;;4.27;;
2257;SDS011;1136;51.574;7.706;2023-09-30T09:59:40;5.20;;;3.80;;
2257;SDS011;1136;51.574;7.706;2023-09-30T10:02:44;6.53;;;4.30;;
2257;SDS011;1136;51.574;7.706;2023-09-30T10:05:50;5.50;;;3.70;;
2257;SDS011;1136;51.574;7.706;2023-09-30T10:08:54;4.80;;;3.43;;
2257;SDS011;1136;51.574;7.706;2023-09-30T10:12:01;5.80;;;3.70;;
2257;SDS011;1136;51.574;7.706;2023-09-30T10:18:29;8.70;;;3.93;;
2257;SDS011;1136;51.574;7.706;2023-09-30T10:21:34;4.07;;;3.67;;
2257;SDS011;1136;51.574;7.706;2023-09-30T10:24:38;3.53;;;3.20;;
2257;SDS011;1136;51.574;7.706;2023-09-30T10:27:42;4.17;;;3.20;;
2257;SDS011;1136;51.574;7.706;2023-09-30T10:34:19;5.13;;;3.40;;
2257;SDS011;1136;51.574;7.706;2023-09-30T10:37:23;4.13;;;2.53;;
2257;SDS011;1136;51.574;7.706;2023-09-30T10:40:32;4.17;;;3.10;;
2257;SDS011;1136;51.574;7.706;2023-09-30T10:46:42;4.47;;;3.07;;
2257;SDS011;1136;51.574;7.706;2023-09-30T10:49:45;5.50;;;3.63;;
2257;SDS011;1136;51.574;7.706;2023-09-30T10:52:50;5.17;;;3.43;;
2257;SDS011;1136;51.574;7.706;2023-09-30T10:55:55;4.47;;;3.60;;
2257;SDS011;1136;51.574;7.706;2023-09-30T10:59:01;5.60;;;4.03;;
2257;SDS011;1136;51.574;7.706;2023-09-30T11:02:19;4.30;;;3.27;;
2257;SDS011;1136;51.574;7.706;2023-09-30T11:05:24;7.17;;;4.23;;
2257;SDS011;1136;51.574;7.706;2023-09-30T11:08:55;5.97;;;3.47;;
2257;SDS011;1136;51.574;7.706;2023-09-30T11:12:02;6.43;;;4.03;;
2257;SDS011;1136;51.574;7.706;2023-09-30T11:15:07;6.87;;;3.20;;
2257;SDS011;1136;51.574;7.706;2023-09-30T11:18:17;6.60;;;3.40;;
2257;SDS011;1136;51.574;7.706;2023-09-30T11:21:22;5.63;;;3.30;;
2257;SDS011;1136;51.574;7.706;2023-09-30T11:24:27;4.03;;;3.13;;
2257;SDS011;1136;51.574;7.706;2023-09-30T11:27:32;8.73;;;3.70;;
2257;SDS011;1136;51.574;7.706;2023-09-30T11:30:52;3.97;;;3.07;;
2257;SDS011;1136;51.574;7.706;2023-09-30T11:33:57;2.90;;;2.70;;
2257;SDS011;1136;51.574;7.706;2023-09-30T11:37:07;4.70;;;2.90;;
2257;SDS011;1136;51.574;7.706;2023-09-30T11:40:12;3.60;;;2.77;;
2257;SDS011;1136;51.574;7.706;2023-09-30T11:43:19;3.70;;;3.40;;
2257;SDS011;1136;51.574;7.706;2023-09-30T11:46:25;4.10;;;3.40;;
2257;SDS011;1136;51.574;7.706;2023-09-30T11:49:35;4.13;;;3.10;;
2257;SDS011;1136;51.574;7.706;2023-09-30T11:52:40;5.77;;;3.27;;
2257;SDS011;1136;51.574;7.706;2023-09-30T11:55:47;5.10;;;3.20;;
2257;SDS011;1136;51.574;7.706;2023-09-30T11:58:52;4.53;;;3.20;;
2257;SDS011;1136;51.574;7.706;2023-09-30T12:01:56;4.90;;;3.17;;
2257;SDS011;1136;51.574;7.706;2023-09-30T12:05:16;5.57;;;3.40;;
2257;SDS011;1136;51.574;7.706;2023-09-30T12:08:21;4.20;;;2.80;;
2257;SDS011;1136;51.574;7.706;2023-09-30T12:11:28;4.87;;;3.40;;
2257;SDS011;1136;51.574;7.706;2023-09-30T12:14:33;4.13;;;2.83;;
2257;SDS011;1136;51.574;7.706;2023-09-30T12:17:38;3.83;;;3.07;;
2257;SDS011;1136;51.574;7.706;2023-09-30T12:20:43;4.80;;;3.10;;
2257;SDS011;1136;51.574;7.706;2023-09-30T12:23:47;3.47;;;3.17;;
2257;SDS011;1136;51.574;7.706;2023-09-30T12:26:52;4.20;;;3.47;;
2257;SDS011;1136;51.574;7.706;2023-09-30T12:29:56;5.33;;;3.00;;
2257;SDS011;1136;51.574;7.706;2023-09-30T12:33:00;6.23;;;5.00;;
2257;SDS011;1136;51.574;7.706;2023-09-30T12:36:04;5.57;;;3.97;;
2257;SDS011;1136;51.574;7.706;2023-09-30T12:39:09;6.50;;;4.40;;
2257;SDS011;1136;51.574;7.706;2023-09-30T12:42:16;5.40;;;3.10;;
2257;SDS011;1136;51.574;7.706;2023-09-30T12:45:20;6.87;;;3.20;;
2257;SDS011;1136;51.574;7.706;2023-09-30T12:48:25;5.53;;;3.83;;
2257;SDS011;1136;51.574;7.706;2023-09-30T12:51:29;5.40;;;3.50;;
2257;SDS011;1136;51.574;7.706;2023-09-30T12:54:34;6.80;;;3.40;;
2257;SDS011;1136;51.574;7.706;2023-09-30T12:57:40;7.80;;;3.83;;
2257;SDS011;1136;51.574;7.706;2023-09-30T13:00:45;4.47;;;3.30;;
2257;SDS011;1136;51.574;7.706;2023-09-30T13:03:49;6.50;;;3.90;;
2257;SDS011;1136;51.574;7.706;2023-09-30T13:06:54;5.43;;;4.07;;
2257;SDS011;1136;51.574;7.706;2023-09-30T13:09:59;5.53;;;3.30;;
2257;SDS011;1136;51.574;7.706;2023-09-30T13:13:04;5.00;;;3.50;;
2257;SDS011;1136;51.574;7.706;2023-09-30T13:16:10;4.60;;;3.30;;
2257;SDS011;1136;51.574;7.706;2023-09-30T13:19:16;4.57;;;3.60;;
2257;SDS011;1136;51.574;7.706;2023-09-30T13:22:24;6.20;;;3.83;;
2257;SDS011;1136;51.574;7.706;2023-09-30T13:25:28;4.53;;;3.57;;
2257;SDS011;1136;51.574;7.706;2023-09-30T13:28:33;8.83;;;3.07;;
2257;SDS011;1136;51.574;7.706;2023-09-30T13:31:36;4.83;;;3.80;;
2257;SDS011;1136;51.574;7.706;2023-09-30T13:34:44;6.80;;;4.93;;
2257;SDS011;1136;51.574;7.706;2023-09-30T13:37:48;4.70;;;3.37;;
2257;SDS011;1136;51.574;7.706;2023-09-30T13:40:52;4.07;;;3.60;;
2257;SDS011;1136;51.574;7.706;2023-09-30T13:43:57;5.17;;;3.17;;
2257;SDS011;1136;51.574;7.706;2023-09-30T13:47:00;3.10;;;2.80;;
2257;SDS011;1136;51.574;7.706;2023-09-30T13:50:05;4.10;;;3.33;;
2257;SDS011;1136;51.574;7.706;2023-09-30T13:53:12;5.67;;;3.27;;
2257;SDS011;1136;51.574;7.706;2023-09-30T13:56:17;3.87;;;2.77;;
2257;SDS011;1136;51.574;7.706;2023-09-30T13:59:21;5.10;;;3.37;;
2257;SDS011;1136;51.574;7.706;2023-09-30T14:02:25;4.07;;;3.00;;
2257;SDS011;1136;51.574;7.706;2023-09-30T14:05:30;3.50;;;3.10;;
2257;SDS011;1136;51.574;7.706;2023-09-30T14:08:34;6.70;;;3.93;;
2257;SDS011;1136;51.574;7.706;2023-09-30T14:11:39;4.13;;;2.80;;
2257;SDS011;1136;51.574;7.706;2023-09-30T14:14:43;4.07;;;3.03;;
2257;SDS011;1136;51.574;7.706;2023-09-30T14:17:47;3.23;;;3.00;;
2257;SDS011;1136;51.574;7.706;2023-09-30T14:20:51;3.10;;;2.80;;
2257;SDS011;1136;51.574;7.706;2023-09-30T14:23:56;4.47;;;3.63;;
2257;SDS011;1136;51.574;7.706;2023-09-30T14:27:01;6.50;;;2.90;;
2257;SDS011;1136;51.574;7.706;2023-09-30T14:30:05;4.70;;;3.00;;
2257;SDS011;1136;51.574;7.706;2023-09-30T14:33:11;4.43;;;3.33;;
2257;SDS011;1136;51.574;7.706;2023-09-30T14:36:15;3.57;;;3.00;;
2257;SDS011;1136;51.574;7.706;2023-09-30T14:39:19;3.50;;;2.80;;
2257;SDS011;1136;51.574;7.706;2023-09-30T14:42:23;4.33;;;3.93;;
2257;SDS011;1136;51.574;7.706;2023-09-30T14:45:27;5.03;;;3.30;;
2257;SDS011;1136;51.574;7.706;2023-09-30T14:48:31;3.80;;;3.17;;
2257;SDS011;1136;51.574;7.706;2023-09-30T14:51:36;6.40;;;3.17;;
2257;SDS011;1136;51.574;7.706;2023-09-30T14:54:41;4.40;;;3.87;;
2257;SDS011;1136;51.574;7.706;2023-09-30T14:57:45;4.33;;;3.73;;
2257;SDS011;1136;51.574;7.706;2023-09-30T15:00:51;4.30;;;3.37;;
2257;SDS011;1136;51.574;7.706;2023-09-30T15:03:55;3.80;;;3.10;;
2257;SDS011;1136;51.574;7.706;2023-09-30T15:06:59;4.13;;;3.67;;
2257;SDS011;1136;51.574;7.706;2023-09-30T15:10:05;4.60;;;3.53;;
2257;SDS011;1136;51.574;7.706;2023-09-30T15:13:10;4.80;;;3.40;;
2257;SDS011;1136;51.574;7.706;2023-09-30T15:16:17;5.57;;;3.67;;
2257;SDS011;1136;51.574;7.706;2023-09-30T15:19:22;4.43;;;3.23;;
2257;SDS011;1136;51.574;7.706;2023-09-30T15:22:26;4.50;;;3.17;;
2257;SDS011;1136;51.574;7.706;2023-09-30T15:25:30;4.20;;;3.80;;
2257;SDS011;1136;51.574;7.706;2023-09-30T15:28:34;5.83;;;3.67;;
2257;SDS011;1136;51.574;7.706;2023-09-30T15:31:39;5.53;;;4.23;;
2257;SDS011;1136;51.574;7.706;2023-09-30T15:34:43;4.63;;;3.43;;
2257;SDS011;1136;51.574;7.706;2023-09-30T15:37:47;5.03;;;3.80;;
2257;SDS011;1136;51.574;7.706;2023-09-30T15:44:01;3.97;;;3.43;;
2257;SDS011;1136;51.574;7.706;2023-09-30T15:47:05;4.83;;;4.30;;
2257;SDS011;1136;51.574;7.706;2023-09-30T15:50:10;5.80;;;4.27;;
2257;SDS011;1136;51.574;7.706;2023-09-30T15:53:15;29.90;;;26.23;;
2257;SDS011;1136;51.574;7.706;2023-09-30T15:56:19;6.03;;;4.23;;
2257;SDS011;1136;51.574;7.706;2023-09-30T15:59:23;5.07;;;4.67;;
2257;SDS011;1136;51.574;7.706;2023-09-30T16:02:27;5.00;;;4.10;;
2257;SDS011;1136;51.574;7.706;2023-09-30T16:05:32;7.70;;;4.60;;
2257;SDS011;1136;51.574;7.706;2023-09-30T16:08:36;5.87;;;4.70;;
2257;SDS011;1136;51.574;7.706;2023-09-30T16:11:40;78.73;;;70.10;;
2257;SDS011;1136;51.574;7.706;2023-09-30T16:14:45;67.60;;;60.30;;
2257;SDS011;1136;51.574;7.706;2023-09-30T16:17:49;41.37;;;36.87;;
2257;SDS011;1136;51.574;7.706;2023-09-30T16:20:53;21.53;;;19.50;;
2257;SDS011;1136;51.574;7.706;2023-09-30T16:23:58;27.13;;;24.57;;
2257;SDS011;1136;51.574;7.706;2023-09-30T16:27:02;25.97;;;23.50;;
2257;SDS011;1136;51.574;7.706;2023-09-30T16:30:06;13.67;;;12.20;;
2257;SDS011;1136;51.574;7.706;2023-09-30T16:33:11;12.10;;;11.00;;
2257;SDS011;1136;51.574;7.706;2023-09-30T16:36:15;9.40;;;8.63;;
2257;SDS011;1136;51.574;7.706;2023-09-30T16:39:19;9.50;;;8.17;;
2257;SDS011;1136;51.574;7.706;2023-09-30T16:42:23;7.90;;;5.53;;
2257;SDS011;1136;51.574;7.706;2023-09-30T16:45:27;10.37;;;7.90;;
2257;SDS011;1136;51.574;7.706;2023-09-30T16:48:32;9.23;;;7.70;;
2257;SDS011;1136;51.574;7.706;2023-09-30T16:51:36;5.77;;;5.07;;
2257;SDS011;1136;51.574;7.706;2023-09-30T16:54:40;9.47;;;8.40;;
2257;SDS011;1136;51.574;7.706;2023-09-30T16:57:44;8.23;;;7.43;;
2257;SDS011;1136;51.574;7.706;2023-09-30T17:00:49;8.23;;;7.43;;
2257;SDS011;1136;51.574;7.706;2023-09-30T17:03:53;8.70;;;6.07;;
2257;SDS011;1136;51.574;7.706;2023-09-30T17:06:59;8.90;;;7.83;;
2257;SDS011;1136;51.574;7.706;2023-09-30T17:10:04;6.90;;;6.20;;
2257;SDS011;1136;51.574;7.706;2023-09-30T17:13:09;7.83;;;6.53;;
2257;SDS011;1136;51.574;7.706;2023-09-30T17:16:19;12.17;;;10.97;;
2257;SDS011;1136;51.574;7.706;2023-09-30T17:19:24;7.73;;;6.83;;
2257;SDS011;1136;51.574;7.706;2023-09-30T17:22:29;5.67;;;5.13;;
2257;SDS011;1136;51.574;7.706;2023-09-30T17:25:33;14.93;;;13.53;;
2257;SDS011;1136;51.574;7.706;2023-09-30T17:28:38;4.97;;;4.47;;
2257;SDS011;1136;51.574;7.706;2023-09-30T17:31:42;5.33;;;4.47;;
2257;SDS011;1136;51.574;7.706;2023-09-30T17:34:46;8.47;;;6.17;;
2257;SDS011;1136;51.574;7.706;2023-09-30T17:37:51;6.30;;;4.93;;
2257;SDS011;1136;51.574;7.706;2023-09-30T17:41:01;8.83;;;6.77;;
2257;SDS011;1136;51.574;7.706;2023-09-30T17:44:08;11.10;;;10.00;;
2257;SDS011;1136;51.574;7.706;2023-09-30T17:47:13;9.20;;;7.20;;
2257;SDS011;1136;51.574;7.706;2023-09-30T17:50:18;14.80;;;12.57;;
2257;SDS011;1136;51.574;7.706;2023-09-30T17:53:22;14.40;;;10.03;;
2257;SDS011;1136;51.574;7.706;2023-09-30T17:56:26;9.10;;;8.30;;
2257;SDS011;1136;51.574;7.706;2023-09-30T17:59:31;19.27;;;17.37;;
2257;SDS011;1136;51.574;7.706;2023-09-30T18:02:35;13.20;;;12.10;;
2257;SDS011;1136;51.574;7.706;2023-09-30T18:05:43;8.73;;;5.30;;
2257;SDS011;1136;51.574;7.706;2023-09-30T18:08:47;10.07;;;5.00;;
2257;SDS011;1136;51.574;7.706;2023-09-30T18:11:51;6.83;;;6.23;;
2257;SDS011;1136;51.574;7.706;2023-09-30T18:14:57;8.30;;;7.53;;
2257;SDS011;1136;51.574;7.706;2023-09-30T18:18:03;11.20;;;6.80;;
2257;SDS011;1136;51.574;7.706;2023-09-30T18:21:15;11.60;;;7.90;;
2257;SDS011;1136;51.574;7.706;2023-09-30T18:24:20;7.17;;;6.37;;
2257;SDS011;1136;51.574;7.706;2023-09-30T18:27:24;8.77;;;7.60;;
2257;SDS011;1136;51.574;7.706;2023-09-30T18:30:28;10.27;;;9.13;;
2257;SDS011;1136;51.574;7.706;2023-09-30T18:33:33;6.00;;;5.40;;
2257;SDS011;1136;51.574;7.706;2023-09-30T18:36:37;5.63;;;5.10;;
2257;SDS011;1136;51.574;7.706;2023-09-30T18:39:41;9.50;;;7.83;;
2257;SDS011;1136;51.574;7.706;2023-09-30T18:42:45;13.77;;;12.17;;
2257;SDS011;1136;51.574;7.706;2023-09-30T18:45:49;11.23;;;8.73;;
2257;SDS011;1136;51.574;7.706;2023-09-30T18:48:53;19.90;;;17.90;;
2257;SDS011;1136;51.574;7.706;2023-09-30T18:51:58;19.57;;;17.67;;
2257;SDS011;1136;51.574;7.706;2023-09-30T18:55:02;17.33;;;15.77;;
2257;SDS011;1136;51.574;7.706;2023-09-30T18:58:07;11.07;;;10.00;;
2257;SDS011;1136;51.574;7.706;2023-09-30T19:01:13;11.43;;;10.20;;
2257;SDS011;1136;51.574;7.706;2023-09-30T19:04:18;11.30;;;7.50;;
2257;SDS011;1136;51.574;7.706;2023-09-30T19:07:22;12.97;;;11.70;;
2257;SDS011;1136;51.574;7.706;2023-09-30T19:10:27;19.90;;;17.57;;
2257;SDS011;1136;51.574;7.706;2023-09-30T19:13:32;14.30;;;12.87;;